Time;durP1;ratioP1;P1;durP2;ratioP2;P2;SDS_P1;SDS_P2;PMS_P1;PMS_P2;Temp;Humidity;BMP_temperature;BMP_pressure;BME280_temperature;BME280_humidity;BME280_pressure;Samples;Min_cycle;Max_cycle;Signal;HPM_P1;HPM_P2
2021/07/25 00:00:41;;;;;;;105.38;49.05;;;17.90;99.90;;;;;;5137056;27;20064;-69
2021/07/25 00:03:08;;;;;;;95.05;44.47;;;17.90;99.90;;;;;;5125775;27;20050;-68
2021/07/25 00:05:35;;;;;;;85.90;43.63;;;17.90;99.90;;;;;;5131599;27;20104;-68
2021/07/25 00:08:00;;;;;;;76.10;41.67;;;17.90;99.90;;;;;;5125641;27;20309;-67
2021/07/25 00:10:26;;;;;;;73.53;40.70;;;17.90;99.90;;;;;;5131179;27;20048;-68
2021/07/25 00:12:52;;;;;;;67.57;37.53;;;17.90;99.90;;;;;;5126809;28;21001;-67
2021/07/25 00:15:18;;;;;;;70.78;36.92;;;17.90;99.90;;;;;;5128464;27;20063;-68
2021/07/25 00:17:45;;;;;;;79.28;40.97;;;17.90;99.90;;;;;;5131645;27;20502;-68
2021/07/25 00:20:11;;;;;;;62.83;36.63;;;17.90;99.90;;;;;;5129283;27;20051;-68
2021/07/25 00:22:37;;;;;;;58.92;31.00;;;17.90;99.90;;;;;;5127328;27;20122;-67
2021/07/25 00:25:09;;;;;;;60.10;33.13;;;17.90;99.90;;;;;;5129381;27;20039;-67
2021/07/25 00:27:40;;;;;;;58.65;34.83;;;17.90;99.90;;;;;;5135738;27;20043;-65
2021/07/25 00:30:11;;;;;;;63.28;34.80;;;17.80;99.90;;;;;;5142289;27;20031;-67
2021/07/25 00:32:38;;;;;;;48.67;30.25;;;17.80;99.90;;;;;;5134398;27;20047;-67
2021/07/25 00:35:04;;;;;;;59.17;33.08;;;17.80;99.90;;;;;;5113512;27;20055;-67
2021/07/25 00:37:30;;;;;;;50.67;30.67;;;17.80;99.90;;;;;;5125478;27;20040;-68
2021/07/25 00:39:56;;;;;;;54.58;31.15;;;17.80;99.90;;;;;;5133117;27;20056;-68
2021/07/25 00:42:22;;;;;;;68.13;36.78;;;17.80;99.90;;;;;;5125798;27;20069;-68
2021/07/25 00:44:47;;;;;;;57.22;33.05;;;17.90;99.90;;;;;;5113429;28;20043;-68
2021/07/25 00:47:13;;;;;;;71.72;37.42;;;17.90;99.90;;;;;;5123656;28;20047;-68
2021/07/25 00:49:39;;;;;;;73.25;37.90;;;17.90;99.90;;;;;;5135023;27;20135;-68
2021/07/25 00:52:06;;;;;;;76.30;39.85;;;17.90;99.90;;;;;;5127865;28;20044;-68
2021/07/25 00:54:34;;;;;;;61.70;34.47;;;17.90;99.90;;;;;;5124448;28;20540;-68
2021/07/25 00:56:59;;;;;;;56.63;32.38;;;18.00;99.90;;;;;;5128537;28;20471;-68
2021/07/25 00:59:25;;;;;;;61.83;30.67;;;17.90;99.90;;;;;;5135936;28;20043;-68
2021/07/25 01:01:52;;;;;;;58.00;34.15;;;18.00;99.90;;;;;;5128479;28;20044;-67
2021/07/25 01:05:00;;;;;;;46.72;27.73;;;18.00;99.90;;;;;;5136984;28;20050;-66
2021/07/25 01:07:51;;;;;;;49.00;30.33;;;18.00;99.90;;;;;;5060850;28;20045;-66
2021/07/25 01:10:27;;;;;;;60.40;34.70;;;18.00;99.90;;;;;;5050533;28;20053;-67
2021/07/25 01:12:57;;;;;;;63.47;34.10;;;18.00;99.90;;;;;;5060662;28;20139;-67
2021/07/25 01:15:26;;;;;;;59.90;32.42;;;18.00;99.90;;;;;;5057697;28;20060;-67
2021/07/25 01:17:55;;;;;;;57.92;31.98;;;18.00;99.90;;;;;;5059135;28;20797;-67
2021/07/25 01:20:23;;;;;;;58.88;32.70;;;18.00;99.90;;;;;;5060563;28;20095;-67
2021/07/25 01:22:51;;;;;;;74.15;38.08;;;18.00;99.90;;;;;;5060671;28;20049;-67
2021/07/25 01:25:19;;;;;;;60.08;33.83;;;18.10;99.90;;;;;;5060445;28;20119;-67
2021/07/25 01:27:44;;;;;;;65.78;34.38;;;18.10;99.90;;;;;;5060500;28;20107;-67
2021/07/25 01:30:14;;;;;;;82.47;40.00;;;18.10;99.90;;;;;;5060545;28;20073;-67
2021/07/25 01:32:41;;;;;;;97.75;44.67;;;18.10;99.90;;;;;;5060337;28;20588;-68
2021/07/25 01:35:08;;;;;;;79.63;41.65;;;18.10;99.90;;;;;;5048308;28;20045;-67
2021/07/25 01:37:34;;;;;;;67.27;32.23;;;18.20;99.90;;;;;;5081626;28;20093;-67
2021/07/25 01:40:13;;;;;;;91.50;46.92;;;18.20;99.90;;;;;;5124440;28;20316;-67
2021/07/25 01:42:38;;;;;;;88.88;44.40;;;18.20;99.90;;;;;;5124031;28;20093;-67
2021/07/25 01:45:05;;;;;;;70.15;38.75;;;18.20;99.90;;;;;;5138427;28;20044;-67
2021/07/25 01:47:31;;;;;;;84.95;44.03;;;18.20;99.90;;;;;;5131824;28;20478;-67
2021/07/25 01:49:57;;;;;;;94.35;47.22;;;18.20;99.90;;;;;;5127088;28;20226;-67
2021/07/25 01:52:22;;;;;;;122.68;54.38;;;18.20;99.90;;;;;;5125415;28;20047;-67
2021/07/25 01:54:48;;;;;;;126.63;52.55;;;18.20;99.90;;;;;;5125060;28;20044;-67
2021/07/25 01:57:14;;;;;;;100.95;50.42;;;18.20;99.90;;;;;;5145150;27;20062;-67
2021/07/25 01:59:40;;;;;;;105.07;51.65;;;18.20;99.90;;;;;;5144760;27;20097;-67
2021/07/25 02:02:05;;;;;;;98.28;49.08;;;18.30;99.90;;;;;;5139384;27;20065;-67
2021/07/25 02:04:32;;;;;;;93.50;48.28;;;18.30;99.90;;;;;;5131870;27;20043;-67
2021/07/25 02:06:57;;;;;;;87.32;45.95;;;18.20;99.90;;;;;;5132027;27;20047;-67
2021/07/25 02:09:23;;;;;;;89.25;48.67;;;18.30;99.90;;;;;;5132443;27;20174;-67
2021/07/25 02:11:49;;;;;;;92.97;47.47;;;18.30;99.90;;;;;;5130361;27;20047;-68
2021/07/25 02:14:15;;;;;;;108.07;50.70;;;18.30;99.90;;;;;;5135269;27;20036;-68
2021/07/25 02:16:40;;;;;;;109.18;49.90;;;18.30;99.90;;;;;;5127391;27;20119;-68
2021/07/25 02:19:06;;;;;;;61.10;33.92;;;18.30;99.90;;;;;;5140674;27;20050;-68
2021/07/25 02:21:32;;;;;;;72.15;38.90;;;18.30;99.90;;;;;;5147035;27;20043;-68
2021/07/25 02:23:58;;;;;;;56.60;30.65;;;18.20;99.90;;;;;;5136861;27;20036;-68
2021/07/25 02:26:23;;;;;;;54.97;33.03;;;18.20;99.90;;;;;;5127025;27;20046;-68
2021/07/25 02:28:49;;;;;;;59.78;37.25;;;18.20;99.90;;;;;;5132737;27;20054;-68
2021/07/25 02:31:15;;;;;;;51.38;32.35;;;18.20;99.90;;;;;;5133011;27;20043;-68
2021/07/25 02:33:40;;;;;;;45.92;30.55;;;18.20;99.90;;;;;;5135496;27;20103;-67
2021/07/25 02:36:06;;;;;;;50.90;33.17;;;18.20;99.90;;;;;;5129338;27;20425;-68
2021/07/25 02:38:32;;;;;;;52.22;31.05;;;18.20;99.90;;;;;;5127002;27;20043;-68
2021/07/25 02:40:58;;;;;;;53.58;32.90;;;18.20;99.90;;;;;;5126659;28;20632;-68
2021/07/25 02:43:23;;;;;;;48.78;31.30;;;18.20;99.90;;;;;;5112877;28;20043;-68
2021/07/25 02:45:49;;;;;;;50.83;32.65;;;18.20;99.90;;;;;;5129943;27;20069;-67
2021/07/25 02:48:15;;;;;;;63.75;35.03;;;18.10;99.90;;;;;;5129850;27;20039;-67
2021/07/25 02:50:41;;;;;;;63.35;36.80;;;18.20;99.90;;;;;;5136007;27;20047;-67
2021/07/25 02:53:06;;;;;;;60.22;37.58;;;18.10;99.90;;;;;;5142731;27;20039;-67
2021/07/25 02:55:32;;;;;;;57.17;35.17;;;18.20;99.90;;;;;;5143613;27;20090;-67
2021/07/25 02:57:58;;;;;;;55.85;35.38;;;18.00;99.90;;;;;;5132369;27;20047;-67
2021/07/25 03:00:25;;;;;;;58.30;35.78;;;18.20;99.90;;;;;;5133588;27;20456;-67
2021/07/25 03:02:50;;;;;;;65.88;36.97;;;18.20;99.90;;;;;;5146790;27;20062;-67
2021/07/25 03:05:17;;;;;;;61.78;37.15;;;18.20;99.90;;;;;;5139724;27;20051;-67
2021/07/25 03:07:42;;;;;;;53.30;31.92;;;18.20;99.90;;;;;;5133322;27;20040;-67
2021/07/25 03:10:09;;;;;;;58.83;34.35;;;18.10;99.90;;;;;;5130621;27;20123;-67
2021/07/25 03:12:34;;;;;;;69.00;40.25;;;18.10;99.90;;;;;;5128448;27;20168;-67
2021/07/25 03:15:00;;;;;;;72.93;42.10;;;18.20;99.90;;;;;;5126035;28;20043;-67
2021/07/25 03:17:26;;;;;;;80.88;40.90;;;18.20;99.90;;;;;;5125636;28;20100;-67
2021/07/25 03:19:52;;;;;;;62.95;31.02;;;18.20;99.90;;;;;;5127390;27;20039;-67
2021/07/25 03:22:17;;;;;;;11.43;8.43;;;18.10;99.90;;;;;;5134736;27;20046;-68
2021/07/25 03:24:43;;;;;;;12.35;8.32;;;18.00;99.90;;;;;;5128367;27;20066;-68
2021/07/25 03:27:09;;;;;;;14.50;9.70;;;17.80;99.90;;;;;;5126552;27;20046;-68
2021/07/25 03:29:35;;;;;;;13.38;9.35;;;17.80;99.90;;;;;;5139415;27;20036;-68
2021/07/25 03:32:01;;;;;;;15.20;10.45;;;17.70;99.90;;;;;;5133516;27;20047;-67
2021/07/25 03:34:31;;;;;;;16.80;11.10;;;17.70;99.90;;;;;;5125544;27;20067;-68
2021/07/25 03:37:02;;;;;;;24.75;14.43;;;17.70;99.90;;;;;;5130991;27;20423;-68
2021/07/25 03:39:28;;;;;;;23.25;13.93;;;17.70;99.90;;;;;;5135381;27;20042;-67
2021/07/25 03:41:54;;;;;;;12.27;8.15;;;17.80;99.90;;;;;;5129319;27;20055;-67
2021/07/25 03:44:20;;;;;;;5.20;3.97;;;17.70;99.90;;;;;;5131084;27;20044;-67
2021/07/25 03:46:47;;;;;;;5.57;4.25;;;17.50;99.90;;;;;;5125076;28;20043;-68
2021/07/25 03:49:13;;;;;;;5.85;4.70;;;17.40;99.90;;;;;;5129688;27;20170;-67
2021/07/25 03:51:38;;;;;;;7.55;5.28;;;17.30;99.90;;;;;;5125312;27;20051;-67
2021/07/25 03:54:07;;;;;;;9.00;6.88;;;17.30;99.90;;;;;;5133641;27;20074;-68
2021/07/25 03:56:36;;;;;;;7.85;6.10;;;17.30;99.90;;;;;;5130709;27;20057;-67
2021/07/25 03:59:02;;;;;;;12.85;8.85;;;17.20;99.90;;;;;;5128264;27;20062;-68
2021/07/25 04:01:28;;;;;;;10.43;8.45;;;17.10;99.90;;;;;;5137672;27;20069;-68
2021/07/25 04:03:54;;;;;;;9.55;7.47;;;17.10;99.90;;;;;;5143469;27;20047;-67
2021/07/25 04:06:20;;;;;;;11.18;8.15;;;17.10;99.90;;;;;;5135677;27;20046;-67
2021/07/25 04:08:46;;;;;;;6.80;4.90;;;17.10;99.90;;;;;;5126658;27;20063;-67
2021/07/25 04:11:19;;;;;;;6.68;5.55;;;17.10;99.90;;;;;;5133673;27;20044;-67
2021/07/25 04:13:46;;;;;;;6.90;5.10;;;17.10;99.90;;;;;;5126620;27;20047;-67
2021/07/25 04:16:12;;;;;;;9.63;6.45;;;17.00;99.90;;;;;;5137403;27;20483;-67
2021/07/25 04:18:38;;;;;;;9.25;7.15;;;17.00;99.90;;;;;;5129768;27;20054;-67
2021/07/25 04:21:03;;;;;;;8.70;7.43;;;17.10;99.90;;;;;;5135367;27;20055;-67
2021/07/25 04:23:29;;;;;;;13.65;8.15;;;17.10;99.90;;;;;;5127092;27;20484;-67
2021/07/25 04:25:56;;;;;;;14.10;10.55;;;17.00;99.90;;;;;;5142948;27;20062;-67
2021/07/25 04:28:22;;;;;;;13.07;10.07;;;17.00;99.90;;;;;;5136127;27;20059;-67
2021/07/25 04:30:48;;;;;;;14.73;11.48;;;17.00;99.90;;;;;;5129816;27;20050;-67
2021/07/25 04:33:19;;;;;;;14.88;11.43;;;17.00;99.90;;;;;;5125538;28;20051;-67
2021/07/25 04:35:46;;;;;;;18.40;12.38;;;17.10;99.90;;;;;;5140887;27;20154;-67
2021/07/25 04:38:12;;;;;;;19.13;13.85;;;17.10;99.90;;;;;;5137646;27;20042;-67
2021/07/25 04:40:40;;;;;;;15.75;11.68;;;17.10;99.90;;;;;;5136840;27;20054;-67
2021/07/25 04:43:09;;;;;;;17.15;12.93;;;17.10;99.90;;;;;;5130921;27;20047;-67
2021/07/25 04:46:02;;;;;;;15.30;11.32;;;17.10;99.90;;;;;;5137374;27;20061;-67
2021/07/25 04:48:46;;;;;;;11.40;8.63;;;17.10;99.90;;;;;;5125957;28;20058;-67
2021/07/25 04:51:13;;;;;;;15.77;10.93;;;17.10;99.90;;;;;;5143685;27;20035;-68
2021/07/25 04:53:41;;;;;;;13.73;9.52;;;17.20;99.90;;;;;;5139569;27;20043;-67
2021/07/25 04:56:10;;;;;;;12.20;9.43;;;17.20;99.90;;;;;;5131930;27;20058;-68
2021/07/25 04:59:07;;;;;;;13.18;9.68;;;17.20;99.90;;;;;;5126699;28;20083;-68
2021/07/25 05:01:36;;;;;;;12.32;8.95;;;17.20;99.90;;;;;;5040178;28;20057;-67
2021/07/25 05:04:04;;;;;;;11.63;8.35;;;17.30;99.90;;;;;;5040994;28;20051;-67
2021/07/25 05:06:32;;;;;;;11.82;10.27;;;17.30;99.90;;;;;;5040386;28;20148;-67
2021/07/25 05:08:58;;;;;;;12.10;10.53;;;17.30;99.90;;;;;;5040635;28;20041;-67
2021/07/25 05:11:32;;;;;;;15.57;11.02;;;17.40;99.90;;;;;;5031321;28;20357;-68
2021/07/25 05:13:59;;;;;;;12.75;10.20;;;17.50;99.90;;;;;;5041046;28;20536;-68
2021/07/25 05:16:41;;;;;;;16.45;11.60;;;17.40;99.90;;;;;;5040561;28;20053;-68
2021/07/25 05:19:10;;;;;;;17.08;11.80;;;17.50;99.90;;;;;;5040552;28;20552;-68
2021/07/25 05:21:41;;;;;;;11.68;9.30;;;17.60;99.90;;;;;;5040559;28;20060;-68
2021/07/25 05:24:09;;;;;;;11.07;8.95;;;17.70;99.90;;;;;;5037423;28;20053;-68
2021/07/25 05:26:36;;;;;;;10.57;8.85;;;17.70;99.90;;;;;;5030207;28;20050;-67
2021/07/25 05:29:03;;;;;;;10.60;7.95;;;17.60;99.90;;;;;;5041961;28;20042;-68
2021/07/25 05:31:33;;;;;;;12.38;9.02;;;17.50;99.90;;;;;;5043912;28;20136;-67
2021/07/25 05:34:02;;;;;;;12.40;9.82;;;17.60;99.90;;;;;;5044496;28;20140;-67
2021/07/25 05:36:28;;;;;;;12.57;10.48;;;17.60;99.90;;;;;;5044519;28;20056;-68
2021/07/25 05:38:54;;;;;;;14.75;11.57;;;17.60;99.90;;;;;;5130237;27;20058;-68
2021/07/25 05:41:20;;;;;;;14.43;11.05;;;17.60;99.90;;;;;;5127752;27;20044;-68
2021/07/25 05:43:46;;;;;;;16.70;11.23;;;17.60;99.90;;;;;;5130379;27;20132;-68
2021/07/25 05:46:11;;;;;;;14.43;10.82;;;17.60;99.90;;;;;;5131554;27;20043;-68
2021/07/25 05:48:37;;;;;;;17.77;12.93;;;17.60;99.90;;;;;;5135554;27;20068;-68
2021/07/25 05:51:04;;;;;;;12.63;10.90;;;17.50;99.90;;;;;;5128292;27;20048;-68
2021/07/25 05:53:30;;;;;;;15.55;13.20;;;17.50;99.90;;;;;;5134639;27;20046;-68
2021/07/25 05:55:57;;;;;;;19.85;13.40;;;17.60;99.90;;;;;;5127987;28;20459;-68
2021/07/25 05:58:22;;;;;;;17.33;12.05;;;17.60;99.90;;;;;;5141810;27;20130;-68
2021/07/25 06:00:48;;;;;;;14.82;12.43;;;17.70;99.90;;;;;;5139134;27;20047;-68
2021/07/25 06:03:14;;;;;;;15.38;12.80;;;17.70;99.90;;;;;;5143928;27;20095;-68
2021/07/25 06:05:40;;;;;;;15.60;13.80;;;17.70;99.90;;;;;;5127615;28;20043;-68
2021/07/25 06:08:10;;;;;;;17.30;12.32;;;17.80;99.90;;;;;;5131112;27;20063;-68
2021/07/25 06:10:41;;;;;;;19.00;13.55;;;17.80;99.90;;;;;;5129622;27;20039;-68
2021/07/25 06:13:07;;;;;;;22.20;15.90;;;17.80;99.90;;;;;;5142520;27;20050;-68
2021/07/25 06:15:35;;;;;;;19.05;14.95;;;18.00;99.90;;;;;;5126877;27;20463;-68
2021/07/25 06:18:02;;;;;;;16.95;13.35;;;18.10;99.90;;;;;;5130580;27;20069;-69
2021/07/25 06:20:29;;;;;;;17.48;13.93;;;18.20;99.90;;;;;;5136397;27;20106;-69
2021/07/25 06:22:56;;;;;;;16.92;14.07;;;18.20;99.90;;;;;;5143968;27;20088;-69
2021/07/25 06:25:24;;;;;;;15.87;12.67;;;18.30;99.90;;;;;;5144584;27;20115;-69
2021/07/25 06:27:52;;;;;;;19.58;13.50;;;18.30;99.90;;;;;;5135956;27;20320;-69
2021/07/25 06:30:20;;;;;;;22.98;14.65;;;18.30;99.90;;;;;;5128269;27;20156;-69
2021/07/25 06:33:05;;;;;;;16.98;13.73;;;18.30;99.90;;;;;;5136672;27;20050;-69
2021/07/25 06:35:33;;;;;;;15.63;13.00;;;18.40;99.90;;;;;;5115392;28;20054;-69
2021/07/25 06:38:02;;;;;;;15.65;12.80;;;18.30;99.90;;;;;;5136815;27;20042;-69
2021/07/25 06:40:28;;;;;;;23.90;14.82;;;18.20;99.90;;;;;;5143434;27;20074;-69
2021/07/25 06:42:56;;;;;;;18.57;13.70;;;18.30;99.90;;;;;;5129273;27;20485;-69
2021/07/25 06:45:23;;;;;;;16.50;14.30;;;18.30;99.90;;;;;;5130411;27;20036;-69
2021/07/25 06:47:50;;;;;;;17.13;13.07;;;18.30;99.90;;;;;;5138320;27;20047;-69
2021/07/25 06:50:24;;;;;;;15.30;13.27;;;18.30;99.90;;;;;;5131398;27;20107;-70
2021/07/25 06:52:51;;;;;;;16.08;13.05;;;18.20;99.90;;;;;;5130161;27;20043;-69
2021/07/25 06:55:19;;;;;;;21.42;14.23;;;18.20;99.90;;;;;;5141601;27;20508;-69
2021/07/25 06:57:45;;;;;;;16.35;14.43;;;18.10;99.90;;;;;;5132832;27;20051;-69
2021/07/25 07:00:11;;;;;;;18.70;13.68;;;18.20;99.90;;;;;;5126353;27;20051;-70
2021/07/25 07:02:51;;;;;;;18.10;13.20;;;18.30;99.90;;;;;;5126924;27;20040;-70
2021/07/25 07:05:25;;;;;;;14.85;12.15;;;18.40;99.90;;;;;;5133168;27;20039;-70
2021/07/25 07:07:56;;;;;;;15.52;12.50;;;18.30;99.90;;;;;;5133175;27;20115;-69
2021/07/25 07:10:34;;;;;;;18.52;12.70;;;18.20;99.90;;;;;;5126538;28;20051;-70
2021/07/25 07:13:02;;;;;;;15.15;12.55;;;18.40;99.90;;;;;;5141298;27;20040;-70
2021/07/25 07:15:30;;;;;;;15.15;12.43;;;18.20;99.90;;;;;;5131393;27;20043;-69
2021/07/25 07:17:58;;;;;;;15.05;13.32;;;18.20;99.90;;;;;;5126397;27;20047;-70
2021/07/25 07:20:24;;;;;;;15.18;12.35;;;18.20;99.90;;;;;;5136130;27;20031;-69
2021/07/25 07:22:53;;;;;;;16.08;13.75;;;18.20;99.90;;;;;;5144905;27;20422;-70
2021/07/25 07:25:19;;;;;;;18.77;14.85;;;18.30;99.90;;;;;;5141904;27;20043;-69
2021/07/25 07:27:45;;;;;;;17.02;14.02;;;18.40;99.90;;;;;;5133526;27;20039;-69
2021/07/25 07:30:11;;;;;;;16.65;12.00;;;18.70;99.90;;;;;;5115156;28;20184;-69
2021/07/25 07:32:37;;;;;;;15.65;11.82;;;18.90;99.90;;;;;;5132933;27;20036;-69
2021/07/25 07:35:03;;;;;;;13.93;11.30;;;19.00;99.90;;;;;;5132420;27;20081;-70
2021/07/25 07:37:28;;;;;;;14.27;10.38;;;19.10;99.90;;;;;;5127410;27;20044;-70
2021/07/25 07:39:54;;;;;;;12.73;8.57;;;19.20;99.90;;;;;;5145272;27;20053;-70
2021/07/25 07:42:20;;;;;;;11.02;8.15;;;19.40;99.90;;;;;;5119827;28;20040;-70
2021/07/25 07:44:46;;;;;;;7.93;7.13;;;19.30;99.90;;;;;;5127643;27;20032;-70
2021/07/25 07:47:12;;;;;;;7.03;6.32;;;19.40;99.90;;;;;;5130089;27;20035;-70
2021/07/25 07:49:38;;;;;;;6.57;5.85;;;19.30;99.90;;;;;;5140413;27;20098;-70
2021/07/25 07:52:05;;;;;;;13.40;6.55;;;19.20;99.90;;;;;;5139651;27;20047;-70
2021/07/25 07:54:30;;;;;;;7.95;6.82;;;19.20;99.90;;;;;;5138973;27;20043;-70
2021/07/25 07:56:57;;;;;;;8.48;6.57;;;19.50;99.90;;;;;;5141629;27;20050;-70
2021/07/25 07:59:22;;;;;;;7.45;5.45;;;19.60;99.90;;;;;;5128851;27;20047;-70
2021/07/25 08:01:48;;;;;;;6.70;5.60;;;19.40;99.90;;;;;;5128188;27;20054;-69
2021/07/25 08:04:14;;;;;;;6.53;5.25;;;19.50;99.90;;;;;;5134231;27;20038;-69
2021/07/25 08:06:39;;;;;;;6.25;5.65;;;19.50;99.90;;;;;;5129504;27;20039;-69
2021/07/25 08:09:05;;;;;;;7.07;5.00;;;19.70;99.90;;;;;;5133841;27;20062;-69
2021/07/25 08:11:31;;;;;;;5.72;5.13;;;19.70;99.90;;;;;;5125794;27;20044;-69
2021/07/25 08:13:57;;;;;;;6.07;5.10;;;19.70;99.90;;;;;;5132814;27;20126;-69
2021/07/25 08:16:23;;;;;;;5.32;4.82;;;20.00;99.90;;;;;;5139251;27;20043;-69
2021/07/25 08:18:48;;;;;;;7.50;5.30;;;20.50;99.90;;;;;;5139447;27;20384;-69
2021/07/25 08:21:14;;;;;;;6.45;5.55;;;20.70;99.90;;;;;;5132214;27;20047;-69
2021/07/25 08:23:40;;;;;;;6.10;5.45;;;21.20;99.90;;;;;;5139801;27;20035;-69
2021/07/25 08:26:06;;;;;;;8.75;6.45;;;21.30;99.90;;;;;;5136838;27;20065;-69
2021/07/25 08:28:31;;;;;;;7.85;6.45;;;21.20;99.90;;;;;;5129879;27;20071;-69
2021/07/25 08:30:59;;;;;;;8.13;7.03;;;21.30;99.90;;;;;;5138705;27;20039;-69
2021/07/25 08:33:25;;;;;;;9.80;7.28;;;21.20;99.90;;;;;;5112183;27;20399;-69
2021/07/25 08:35:51;;;;;;;8.13;7.30;;;21.50;99.90;;;;;;5126464;27;20054;-69
2021/07/25 08:38:17;;;;;;;13.48;7.93;;;21.40;99.90;;;;;;5130415;27;20118;-69
2021/07/25 08:40:54;;;;;;;11.93;8.48;;;21.70;99.90;;;;;;5125314;28;20044;-69
2021/07/25 08:43:22;;;;;;;12.57;8.32;;;21.50;99.90;;;;;;5124722;28;20039;-69
2021/07/25 08:45:48;;;;;;;9.90;7.90;;;21.60;99.90;;;;;;5124306;27;20040;-69
2021/07/25 08:48:18;;;;;;;10.20;8.45;;;21.60;99.90;;;;;;5139140;27;20065;-69
2021/07/25 08:50:58;;;;;;;12.55;8.10;;;21.40;99.90;;;;;;5124855;28;20519;-69
2021/07/25 08:53:27;;;;;;;8.38;6.97;;;21.40;99.90;;;;;;5133418;27;20078;-69
2021/07/25 08:55:53;;;;;;;9.18;7.03;;;21.50;99.90;;;;;;5124483;28;20044;-69
2021/07/25 08:58:22;;;;;;;11.02;7.10;;;21.50;99.90;;;;;;5133823;27;20046;-69
2021/07/25 09:00:50;;;;;;;8.05;6.70;;;21.30;99.90;;;;;;5126608;28;20138;-69
2021/07/25 09:03:17;;;;;;;8.30;6.88;;;21.30;99.90;;;;;;5131789;28;20043;-69
2021/07/25 09:05:44;;;;;;;9.15;7.00;;;21.40;99.90;;;;;;5132003;28;20048;-69
2021/07/25 09:08:10;;;;;;;8.75;7.38;;;21.40;99.90;;;;;;5135521;28;20039;-69
2021/07/25 09:10:36;;;;;;;9.68;7.07;;;21.70;99.90;;;;;;5128385;28;20044;-69
2021/07/25 09:13:03;;;;;;;10.45;6.93;;;21.80;99.90;;;;;;5127149;28;20044;-69
2021/07/25 09:15:32;;;;;;;11.48;7.30;;;21.80;99.90;;;;;;5130310;28;20122;-69
2021/07/25 09:17:59;;;;;;;7.57;5.80;;;21.80;99.90;;;;;;5143103;28;20040;-69
2021/07/25 09:20:31;;;;;;;10.10;6.43;;;21.90;99.90;;;;;;5130702;28;20043;-69
2021/07/25 09:23:05;;;;;;;9.55;7.30;;;22.00;99.90;;;;;;5125653;28;20086;-69
2021/07/25 09:25:35;;;;;;;8.70;7.30;;;21.90;99.90;;;;;;5131876;28;20048;-69
2021/07/25 09:28:00;;;;;;;7.13;6.20;;;22.10;99.90;;;;;;5124046;28;20404;-69
2021/07/25 09:30:29;;;;;;;8.88;7.00;;;22.30;99.90;;;;;;5127486;28;20048;-69
2021/07/25 09:32:56;;;;;;;7.70;6.53;;;22.30;99.90;;;;;;5142760;28;20068;-69
2021/07/25 09:35:30;;;;;;;11.88;6.82;;;22.70;99.90;;;;;;5141822;28;20039;-68
2021/07/25 09:38:17;;;;;;;8.95;6.45;;;23.10;99.90;;;;;;5125107;28;20044;-68
2021/07/25 09:40:44;;;;;;;8.80;6.35;;;22.90;99.90;;;;;;5136406;28;20196;-68
2021/07/25 09:43:12;;;;;;;8.65;6.85;;;22.70;99.90;;;;;;5130855;28;20102;-68
2021/07/25 09:45:50;;;;;;;8.77;6.43;;;22.90;99.90;;;;;;5131806;28;20599;-68
2021/07/25 09:48:23;;;;;;;8.48;6.68;;;22.60;99.90;;;;;;5123979;28;20039;-68
2021/07/25 09:50:50;;;;;;;8.70;6.95;;;22.50;99.90;;;;;;5136483;28;20044;-69
2021/07/25 09:53:16;;;;;;;9.40;7.03;;;22.20;99.90;;;;;;5125413;28;20036;-67
2021/07/25 09:55:43;;;;;;;12.17;7.63;;;21.90;99.90;;;;;;5135751;28;20043;-68
2021/07/25 09:58:08;;;;;;;11.98;8.45;;;21.40;99.90;;;;;;5136378;28;20048;-68
2021/07/25 10:00:39;;;;;;;9.35;7.55;;;21.10;99.90;;;;;;5133424;28;20095;-69
2021/07/25 10:03:23;;;;;;;11.43;8.00;;;21.00;99.90;;;;;;5132415;28;20104;-68
2021/07/25 10:05:51;;;;;;;9.60;7.93;;;21.00;99.90;;;;;;5125309;28;20040;-68
2021/07/25 10:08:21;;;;;;;9.98;7.38;;;21.10;99.90;;;;;;5128224;28;20043;-68
2021/07/25 10:10:49;;;;;;;9.52;7.32;;;21.20;99.90;;;;;;5123629;28;20062;-68
2021/07/25 10:13:20;;;;;;;10.93;7.55;;;21.30;99.90;;;;;;5130258;28;20048;-68
2021/07/25 10:16:06;;;;;;;9.85;7.55;;;21.60;99.90;;;;;;5141975;27;20054;-68
2021/07/25 10:18:34;;;;;;;8.73;7.50;;;21.70;99.90;;;;;;5140883;27;20040;-68
2021/07/25 10:21:00;;;;;;;9.80;8.25;;;21.90;99.90;;;;;;5127040;27;20039;-68
2021/07/25 10:23:40;;;;;;;9.88;8.35;;;22.00;99.90;;;;;;5140869;27;20088;-68
2021/07/25 10:26:07;;;;;;;11.27;9.32;;;22.20;99.90;;;;;;5139480;27;20117;-68
2021/07/25 10:28:34;;;;;;;14.10;10.35;;;22.40;99.90;;;;;;5146230;27;20054;-68
2021/07/25 10:31:00;;;;;;;13.07;9.88;;;22.60;99.90;;;;;;5138239;27;20039;-67
2021/07/25 10:33:30;;;;;;;14.70;11.45;;;22.70;99.90;;;;;;5129459;27;20047;-68
2021/07/25 10:35:57;;;;;;;15.20;11.25;;;22.70;99.90;;;;;;5134120;27;20066;-67
2021/07/25 10:38:23;;;;;;;14.27;11.73;;;22.80;99.90;;;;;;5135459;27;20441;-67
2021/07/25 10:40:50;;;;;;;15.55;11.90;;;22.60;99.90;;;;;;5131362;27;20047;-67
2021/07/25 10:43:23;;;;;;;14.07;11.48;;;22.80;99.90;;;;;;5144266;27;20787;-67
2021/07/25 10:46:22;;;;;;;14.95;11.90;;;23.10;99.90;;;;;;5135592;27;20050;-67
2021/07/25 10:49:00;;;;;;;17.13;13.40;;;23.20;99.90;;;;;;5138122;27;20096;-67
2021/07/25 10:51:32;;;;;;;;;;;23.20;99.90;;;;;;5129098;27;20035;-67
2021/07/25 10:54:24;;;;;;;18.20;12.68;;;23.50;99.90;;;;;;5131807;27;19926;-67
2021/07/25 10:57:08;;;;;;;19.33;15.40;;;23.50;99.90;;;;;;5126442;27;20052;-67
2021/07/25 10:59:37;;;;;;;20.38;15.35;;;23.50;99.90;;;;;;5127001;27;20168;-67
2021/07/25 11:02:03;;;;;;;19.10;16.23;;;23.60;99.90;;;;;;5133745;27;20368;-68
2021/07/25 11:04:48;;;;;;;20.10;16.08;;;23.60;99.90;;;;;;5133432;27;20055;-67
2021/07/25 11:07:23;;;;;;;21.30;15.82;;;23.60;99.90;;;;;;5115075;27;20131;-68
2021/07/25 11:09:59;;;;;;;20.08;15.32;;;23.50;99.90;;;;;;5127976;27;20065;-68
2021/07/25 11:12:26;;;;;;;20.25;14.27;;;23.60;99.90;;;;;;5138180;27;20043;-67
2021/07/25 11:14:55;;;;;;;;;;;23.70;99.90;;;;;;5128280;27;20043;-67
2021/07/25 11:17:43;;;;;;;17.58;14.02;;;23.90;99.90;;;;;;5140521;27;19949;-68
2021/07/25 11:20:35;;;;;;;19.35;13.95;;;23.90;99.90;;;;;;5118044;27;20061;-68
2021/07/25 11:23:02;;;;;;;16.83;13.70;;;24.20;99.90;;;;;;5131784;27;20052;-68
2021/07/25 11:25:34;;;;;;;18.35;14.68;;;24.50;99.90;;;;;;5137932;27;20050;-67
2021/07/25 11:28:01;;;;;;;24.27;16.17;;;24.60;99.90;;;;;;5139340;27;20051;-67
2021/07/25 11:30:49;;;;;;;18.60;14.27;;;24.60;99.90;;;;;;5125657;27;20040;-68
2021/07/25 11:33:37;;;;;;;20.45;14.95;;;24.40;99.90;;;;;;5134778;27;20125;-67
2021/07/25 11:36:13;;;;;;;16.90;13.80;;;24.50;99.90;;;;;;5136452;27;20097;-67
2021/07/25 11:38:40;;;;;;;18.27;14.77;;;24.70;99.90;;;;;;5126951;27;20061;-67
2021/07/25 11:41:08;;;;;;;23.10;14.73;;;24.40;99.90;;;;;;5131666;27;20039;-67
2021/07/25 11:43:55;;;;;;;18.58;14.38;;;24.00;99.90;;;;;;5135977;27;20429;-67
2021/07/25 11:46:27;;;;;;;19.45;15.95;;;23.80;99.90;;;;;;5136447;27;20044;-67
2021/07/25 11:49:08;;;;;;;17.85;15.20;;;23.80;99.90;;;;;;5110151;28;20047;-67
2021/07/25 11:51:36;;;;;;;20.63;14.90;;;23.90;99.90;;;;;;5130700;27;20462;-67
2021/07/25 11:54:02;;;;;;;20.30;13.32;;;24.20;99.90;;;;;;5142904;27;20076;-67
2021/07/25 11:56:29;;;;;;;17.83;15.18;;;24.10;99.90;;;;;;5139189;27;20050;-67
2021/07/25 11:59:02;;;;;;;15.73;14.10;;;24.00;99.90;;;;;;5129393;27;20417;-67
2021/07/25 12:01:28;;;;;;;20.38;14.63;;;24.10;99.90;;;;;;5130200;27;20048;-66
2021/07/25 12:03:54;;;;;;;16.42;14.27;;;23.90;99.90;;;;;;5130665;27;20047;-66
2021/07/25 12:06:20;;;;;;;19.48;15.13;;;24.00;99.90;;;;;;5127793;27;20055;-66
2021/07/25 12:09:22;;;;;;;18.17;13.70;;;24.10;99.90;;;;;;5133461;27;20065;-66
2021/07/25 12:11:48;;;;;;;18.48;14.10;;;24.00;99.90;;;;;;5079225;28;20099;-66
2021/07/25 12:14:14;;;;;;;18.63;14.82;;;24.10;99.90;;;;;;5081426;28;20525;-66
2021/07/25 12:16:44;;;;;;;19.10;13.30;;;24.10;99.90;;;;;;5078888;28;20049;-66
2021/07/25 12:19:17;;;;;;;16.00;13.68;;;24.30;99.90;;;;;;5076790;28;20061;-66
2021/07/25 12:21:44;;;;;;;17.60;14.55;;;24.30;99.90;;;;;;5081291;28;20138;-66
2021/07/25 12:24:40;;;;;;;21.88;13.70;;;24.30;99.90;;;;;;5081477;28;20044;-66
2021/07/25 12:27:22;;;;;;;16.50;13.43;;;24.50;99.90;;;;;;5069500;28;20053;-66
2021/07/25 12:29:48;;;;;;;16.35;12.20;;;24.70;99.90;;;;;;5081455;28;20358;-66
2021/07/25 12:32:30;;;;;;;13.32;11.90;;;25.00;99.90;;;;;;5080650;28;20349;-66
2021/07/25 12:35:08;;;;;;;15.02;11.57;;;25.20;99.90;;;;;;5069501;28;20099;-66
2021/07/25 12:37:40;;;;;;;;;;;25.30;99.90;;;;;;5076980;28;20147;-66
2021/07/25 12:40:20;;;;;;;16.75;13.27;;;25.10;99.90;;;;;;5080687;28;19920;-66
2021/07/25 12:42:47;;;;;;;15.85;13.00;;;25.20;99.90;;;;;;5081040;28;20100;-66